Time;durP1;ratioP1;P1;durP2;ratioP2;P2;SDS_P1;SDS_P2;PMS_P1;PMS_P2;Temp;Humidity;BMP_temperature;BMP_pressure;BME280_temperature;BME280_humidity;BME280_pressure;Samples;Min_cycle;Max_cycle;Signal;HPM_P1;HPM_P2
2022/08/23 00:02:08;;;;;;;15.38;6.00;;;;;;;18.54;100.00;101003.75;5061832;28;20040;-83
2022/08/23 00:04:38;;;;;;;15.27;5.97;;;;;;;18.42;100.00;101003.22;5042454;28;20029;-83
2022/08/23 00:07:12;;;;;;;15.88;6.05;;;;;;;18.27;100.00;101003.00;5054538;28;20132;-84
2022/08/23 00:09:39;;;;;;;11.65;5.05;;;;;;;18.19;100.00;101000.22;5046427;28;20028;-84
2022/08/23 00:12:20;;;;;;;17.30;5.82;;;;;;;18.14;100.00;101009.00;5060721;28;20029;-82
2022/08/23 00:14:53;;;;;;;19.88;6.15;;;;;;;18.13;100.00;101006.41;5028251;28;20053;-82
2022/08/23 00:17:22;;;;;;;11.77;5.72;;;;;;;17.95;100.00;101006.50;5063396;28;20401;-84
2022/08/23 00:19:50;;;;;;;18.52;6.75;;;;;;;18.01;100.00;101003.09;5058977;28;20025;-83
2022/08/23 00:22:19;;;;;;;14.18;6.32;;;;;;;17.98;100.00;101001.50;5059530;28;20033;-83
2022/08/23 00:24:48;;;;;;;14.50;6.13;;;;;;;18.05;100.00;101004.47;5047092;28;20040;-81
2022/08/23 00:27:16;;;;;;;15.25;6.03;;;;;;;18.08;100.00;101004.13;5063354;28;20060;-81
2022/08/23 00:29:49;;;;;;;15.40;6.20;;;;;;;18.08;100.00;101009.69;5055833;28;20032;-82
2022/08/23 00:32:26;;;;;;;13.98;7.10;;;;;;;17.97;100.00;100998.88;5073244;28;20040;-82
2022/08/23 00:34:55;;;;;;;11.45;6.68;;;;;;;17.90;100.00;101001.47;5057184;28;20068;-81
2022/08/23 00:37:21;;;;;;;13.23;7.38;;;;;;;18.00;100.00;101009.66;5076325;28;20032;-81
2022/08/23 00:39:50;;;;;;;19.60;7.47;;;;;;;17.94;100.00;101005.66;5069164;28;20545;-82
2022/08/23 00:48:43;;;;;;;12.43;7.60;;;;;;;17.80;100.00;101000.69;5039913;28;20037;-82
2022/08/23 00:51:18;;;;;;;22.48;8.90;;;;;;;17.81;100.00;100997.75;5063180;28;20031;-83
2022/08/23 00:53:52;;;;;;;21.65;9.93;;;;;;;17.73;100.00;101000.50;5075441;28;20055;-81
2022/08/23 00:56:23;;;;;;;31.23;9.95;;;;;;;17.68;100.00;100999.25;5078744;28;20025;-81
2022/08/23 00:58:51;;;;;;;15.35;8.38;;;;;;;17.64;100.00;101004.22;5079972;28;20396;-82
2022/08/23 01:01:19;;;;;;;18.20;8.35;;;;;;;17.58;100.00;101002.16;5062239;28;20055;-82
2022/08/23 01:03:50;;;;;;;19.13;9.13;;;;;;;17.55;100.00;100999.69;5077166;28;20040;-81
2022/08/23 01:06:28;;;;;;;18.00;8.75;;;;;;;17.58;100.00;101007.69;5083877;28;20029;-82
2022/08/23 01:09:00;;;;;;;17.90;8.32;;;;;;;17.69;100.00;101007.38;5070997;28;20499;-81
2022/08/23 01:11:40;;;;;;;15.68;8.00;;;;;;;17.62;100.00;100990.56;5054721;28;20415;-82
2022/08/23 01:14:17;;;;;;;25.00;8.82;;;;;;;17.62;100.00;100995.22;5074545;28;20037;-83
2022/08/23 01:16:52;;;;;;;18.15;9.68;;;;;;;17.57;100.00;101003.16;5063532;28;20029;-80
2022/08/23 01:19:27;;;;;;;21.85;9.77;;;;;;;17.66;100.00;101007.72;5045475;28;20064;-82
2022/08/23 01:22:28;;;;;;;25.00;10.43;;;;;;;17.69;100.00;101015.69;5061751;28;20392;-82
2022/08/23 01:24:55;;;;;;;14.82;9.65;;;;;;;17.61;100.00;101015.63;5048963;28;20075;-83
2022/08/23 01:27:26;;;;;;;17.15;9.40;;;;;;;17.61;100.00;101015.63;5045829;28;20067;-83
2022/08/23 01:29:53;;;;;;;24.02;9.93;;;;;;;17.64;100.00;101004.22;5056294;28;20047;-84
2022/08/23 01:32:24;;;;;;;22.98;9.07;;;;;;;17.65;100.00;101019.81;5061629;28;20041;-81
2022/08/23 01:34:51;;;;;;;29.67;9.75;;;;;;;17.62;100.00;101007.16;5048389;28;20132;-83
2022/08/23 01:37:20;;;;;;;20.65;9.25;;;;;;;17.62;100.00;101012.69;5046646;28;20024;-82
2022/08/23 01:39:47;;;;;;;22.02;9.57;;;;;;;17.63;100.00;101008.91;5082791;28;20043;-83
2022/08/23 01:42:12;;;;;;;19.80;8.48;;;;;;;17.53;100.00;101008.16;5060863;28;20033;-83
2022/08/23 01:44:40;;;;;;;18.75;9.52;;;;;;;17.44;100.00;101004.47;5063645;28;20025;-82
2022/08/23 01:47:07;;;;;;;18.95;9.60;;;;;;;17.21;100.00;101009.66;5073667;28;20029;-82
2022/08/23 01:49:33;;;;;;;24.08;10.32;;;;;;;17.17;100.00;101010.16;5043096;28;20437;-83
2022/08/23 01:52:03;;;;;;;19.42;11.07;;;;;;;17.24;100.00;101014.88;5068756;28;20449;-81
2022/08/23 01:54:28;;;;;;;24.58;10.85;;;;;;;17.15;100.00;101012.19;5045382;28;20060;-82
2022/08/23 01:56:55;;;;;;;25.52;10.65;;;;;;;16.81;100.00;101010.16;5037780;28;20041;-82
2022/08/23 01:59:23;;;;;;;23.70;10.43;;;;;;;16.75;100.00;101008.88;5053571;28;20033;-82
2022/08/23 02:01:48;;;;;;;27.13;10.80;;;;;;;16.69;100.00;101018.69;5072894;28;20028;-82
2022/08/23 02:04:14;;;;;;;30.35;11.38;;;;;;;16.76;100.00;101012.50;5046638;28;20050;-81
2022/08/23 02:06:45;;;;;;;23.00;10.85;;;;;;;16.85;100.00;101020.75;5052868;28;20392;-82
2022/08/23 02:09:10;;;;;;;21.55;11.35;;;;;;;16.81;100.00;101016.56;5081230;28;20033;-82
2022/08/23 02:11:41;;;;;;;21.73;11.25;;;;;;;16.82;100.00;101020.19;5082640;28;20024;-82
2022/08/23 02:14:12;;;;;;;24.10;10.85;;;;;;;16.84;100.00;101020.88;5078335;28;20127;-82
2022/08/23 02:16:42;;;;;;;26.30;11.25;;;;;;;16.89;100.00;101018.56;5058355;28;20511;-82
2022/08/23 02:19:11;;;;;;;26.25;11.05;;;;;;;16.95;100.00;101022.59;5065389;28;20059;-83
2022/08/23 02:21:39;;;;;;;23.20;12.60;;;;;;;16.95;100.00;101017.91;5062576;28;20025;-80
2022/08/23 02:24:23;;;;;;;34.45;13.32;;;;;;;16.77;100.00;101023.41;5074336;28;20092;-82
2022/08/23 02:26:55;;;;;;;22.15;12.27;;;;;;;16.90;100.00;101026.72;5088097;28;20044;-83
2022/08/23 02:29:23;;;;;;;22.75;13.15;;;;;;;16.96;100.00;101022.44;5069627;28;20476;-83
2022/08/23 02:31:49;;;;;;;32.10;14.75;;;;;;;17.02;100.00;101023.69;5051601;28;20037;-82
2022/08/23 02:34:20;;;;;;;33.35;14.18;;;;;;;16.94;100.00;101016.19;5045057;28;20029;-84
2022/08/23 02:36:45;;;;;;;24.85;13.48;;;;;;;16.71;100.00;101019.41;5061545;28;20051;-83
2022/08/23 02:39:13;;;;;;;30.50;14.77;;;;;;;16.43;100.00;101017.72;5063763;28;20036;-81
2022/08/23 02:41:42;;;;;;;34.10;16.13;;;;;;;16.36;100.00;101017.47;5075454;28;20399;-84
2022/08/23 02:44:12;;;;;;;34.90;14.00;;;;;;;16.49;100.00;101014.34;5064333;28;20077;-82
2022/08/23 02:46:39;;;;;;;30.88;15.38;;;;;;;16.54;100.00;101015.63;5047188;28;20127;-83
2022/08/23 02:49:05;;;;;;;34.35;15.52;;;;;;;16.48;100.00;101015.38;5044073;28;20033;-83
2022/08/23 02:51:31;;;;;;;35.40;15.20;;;;;;;16.47;100.00;101030.22;5070211;28;20064;-82
2022/08/23 02:53:57;;;;;;;39.45;16.42;;;;;;;16.60;100.00;101021.53;5049065;28;20033;-82
2022/08/23 02:56:23;;;;;;;43.00;17.65;;;;;;;16.50;100.00;101024.38;5029887;28;20033;-83
2022/08/23 02:58:50;;;;;;;33.17;16.92;;;;;;;16.55;100.00;101038.59;5060818;28;20033;-83
2022/08/23 03:01:25;;;;;;;42.10;19.48;;;;;;;16.61;100.00;101039.84;5067692;28;20025;-82
2022/08/23 03:03:52;;;;;;;34.42;18.02;;;;;;;16.64;100.00;101036.78;5061831;28;20033;-83
2022/08/23 03:06:23;;;;;;;39.87;19.80;;;;;;;16.61;100.00;101034.31;5069876;28;20060;-83
2022/08/23 03:08:49;;;;;;;36.17;18.58;;;;;;;16.65;100.00;101027.47;5044785;28;20025;-84
2022/08/23 03:11:22;;;;;;;39.90;19.90;;;;;;;16.59;100.00;101028.09;5068521;28;20086;-82
2022/08/23 03:13:48;;;;;;;36.50;18.55;;;;;;;16.53;100.00;101035.13;5063094;28;20040;-82
2022/08/23 03:16:15;;;;;;;41.65;16.35;;;;;;;16.47;100.00;101030.22;5074871;28;20166;-84
2022/08/23 03:18:41;;;;;;;40.47;16.08;;;;;;;16.39;100.00;101042.03;5053912;28;20036;-82
2022/08/23 03:21:09;;;;;;;38.55;17.75;;;;;;;16.25;100.00;101037.03;5051073;28;20792;-84
2022/08/23 03:23:36;;;;;;;35.50;18.20;;;;;;;16.20;100.00;101033.84;5032971;28;20082;-84
2022/08/23 03:26:04;;;;;;;36.35;16.67;;;;;;;16.11;100.00;101033.75;5035538;28;20025;-84
2022/08/23 03:28:31;;;;;;;43.90;17.83;;;;;;;16.11;100.00;101031.00;5063861;28;20028;-84
2022/08/23 03:30:58;;;;;;;32.13;16.92;;;;;;;15.97;100.00;101037.00;5067439;28;20088;-83
2022/08/23 03:33:24;;;;;;;40.67;18.05;;;;;;;15.82;100.00;101039.41;5036584;28;20045;-81
2022/08/23 03:35:49;;;;;;;39.05;17.90;;;;;;;15.75;100.00;101033.59;5063664;28;20028;-82
2022/08/23 03:38:18;;;;;;;38.63;17.75;;;;;;;15.74;100.00;101036.50;5044593;28;20041;-82
2022/08/23 03:40:44;;;;;;;48.78;17.88;;;;;;;15.74;100.00;101036.50;5068033;28;20024;-83
2022/08/23 03:43:13;;;;;;;47.28;17.90;;;;;;;15.69;100.00;101038.84;5064879;28;20056;-84
2022/08/23 03:45:39;;;;;;;41.67;18.85;;;;;;;15.77;100.00;101039.88;5047338;28;20035;-83
2022/08/23 03:48:08;;;;;;;31.95;18.08;;;;;;;15.96;100.00;101049.09;5065890;28;20029;-83
2022/08/23 03:50:34;;;;;;;41.83;18.15;;;;;;;16.13;100.00;101041.88;5044804;28;20032;-83
2022/08/23 03:53:00;;;;;;;44.17;20.15;;;;;;;16.08;100.00;101047.88;5064120;28;20439;-84
2022/08/23 03:55:29;;;;;;;38.80;18.85;;;;;;;16.07;100.00;101045.25;5064709;28;20028;-83
2022/08/23 03:57:56;;;;;;;44.08;19.35;;;;;;;16.09;100.00;101046.84;5058977;28;20036;-82
2022/08/23 04:00:22;;;;;;;42.50;20.13;;;;;;;16.00;100.00;101050.53;5072538;28;20092;-83
2022/08/23 04:02:51;;;;;;;41.78;19.95;;;;;;;16.14;100.00;101046.41;5075377;28;20055;-83
2022/08/23 04:05:19;;;;;;;49.15;19.58;;;;;;;16.14;100.00;101054.69;5067846;28;20048;-82
2022/08/23 04:07:46;;;;;;;41.58;19.00;;;;;;;16.05;100.00;101039.88;5042414;28;20064;-85
2022/08/23 04:10:20;;;;;;;41.20;19.23;;;;;;;16.16;100.00;101050.72;5057024;28;20032;-84
2022/08/23 04:12:48;;;;;;;46.33;19.70;;;;;;;16.40;100.00;101053.94;5047063;28;20043;-83
2022/08/23 04:15:14;;;;;;;42.00;20.45;;;;;;;16.45;100.00;101065.44;5069440;28;20063;-84
2022/08/23 04:17:43;;;;;;;48.55;20.27;;;;;;;16.53;100.00;101071.06;5052031;28;20131;-84
2022/08/23 04:20:13;;;;;;;41.80;19.55;;;;;;;16.63;100.00;101073.75;5050388;28;20070;-84
2022/08/23 04:22:41;;;;;;;38.95;21.45;;;;;;;16.68;100.00;101075.00;5048675;28;20025;-84
2022/08/23 04:25:07;;;;;;;47.22;21.30;;;;;;;16.65;100.00;101086.38;5048252;28;20503;-84
2022/08/23 04:27:36;;;;;;;49.53;20.83;;;;;;;16.64;100.00;101079.13;5066278;28;20029;-79
2022/08/23 04:30:03;;;;;;;46.15;20.50;;;;;;;16.55;100.00;101077.28;5081516;28;20103;-80
2022/08/23 04:32:28;;;;;;;39.85;20.20;;;;;;;16.41;100.00;101078.66;5082523;28;20399;-82
2022/08/23 04:34:57;;;;;;;51.58;22.20;;;;;;;16.24;100.00;101076.75;5077087;28;20017;-81
2022/08/23 04:37:26;;;;;;;58.00;23.42;;;;;;;16.21;100.00;101080.66;5024221;28;20037;-79
2022/08/23 04:42:41;;;;;;;46.38;24.83;;;;;;;16.26;100.00;101070.03;5066001;28;20105;-81
2022/08/23 04:45:10;;;;;;;54.47;24.33;;;;;;;16.26;100.00;101081.06;5051803;28;20029;-80
2022/08/23 04:47:39;;;;;;;65.80;25.48;;;;;;;16.22;100.00;101079.66;5052208;28;20045;-81
2022/08/23 04:50:10;;;;;;;58.65;24.27;;;;;;;16.43;100.00;101087.69;5071480;28;20475;-79
2022/08/23 04:52:36;;;;;;;54.15;24.45;;;;;;;16.51;100.00;101084.13;5085918;28;20056;-81
2022/08/23 04:55:03;;;;;;;51.15;25.95;;;;;;;16.42;100.00;101080.41;5083868;28;20024;-81
2022/08/23 04:57:29;;;;;;;51.75;24.42;;;;;;;16.59;100.00;101095.28;5062216;28;20040;-80
2022/08/23 04:59:56;;;;;;;54.92;25.38;;;;;;;16.65;100.00;101096.59;5066970;28;20090;-82
2022/08/23 05:02:21;;;;;;;48.95;25.65;;;;;;;16.69;100.00;101090.59;5062675;28;20049;-80
2022/08/23 05:04:47;;;;;;;66.15;24.75;;;;;;;16.67;100.00;101100.06;5062036;28;20056;-81
2022/08/23 05:07:14;;;;;;;58.97;24.10;;;;;;;16.62;100.00;101103.28;5073855;28;20373;-80
2022/08/23 05:09:41;;;;;;;46.15;23.77;;;;;;;16.40;100.00;101089.88;5033747;28;20033;-81
2022/08/23 05:12:10;;;;;;;66.30;26.63;;;;;;;16.05;100.00;101110.84;5048332;28;20033;-81
2022/08/23 05:14:41;;;;;;;61.50;26.77;;;;;;;16.07;100.00;101114.31;5072735;28;20068;-81
2022/08/23 05:17:07;;;;;;;85.85;26.88;;;;;;;16.13;100.00;101105.44;5058913;28;20029;-80
2022/08/23 05:19:33;;;;;;;60.40;26.90;;;;;;;16.29;100.00;101108.41;5066579;28;20025;-79
2022/08/23 05:22:03;;;;;;;61.13;28.70;;;;;;;16.28;100.00;101111.31;5068368;28;20043;-79
2022/08/23 05:24:28;;;;;;;80.35;33.85;;;;;;;16.30;100.00;101112.06;5069317;28;20032;-79
2022/08/23 05:26:57;;;;;;;81.53;31.48;;;;;;;16.39;100.00;101110.25;5066905;28;20029;-80
2022/08/23 05:29:23;;;;;;;78.60;34.38;;;;;;;16.52;100.00;101117.16;5073974;28;20400;-80
2022/08/23 05:31:48;;;;;;;86.93;37.28;;;;;;;16.42;100.00;101112.72;5079970;28;20039;-80
2022/08/23 05:34:14;;;;;;;85.43;38.35;;;;;;;16.66;100.00;101113.03;5048250;28;20037;-79
2022/08/23 05:36:40;;;;;;;93.22;39.55;;;;;;;16.73;100.00;101113.25;5040948;28;20105;-79
2022/08/23 05:39:06;;;;;;;99.32;40.08;;;;;;;16.90;100.00;101106.94;5067991;28;20033;-79
2022/08/23 05:41:32;;;;;;;97.90;43.03;;;;;;;17.18;100.00;101105.97;5073074;28;20119;-81
2022/08/23 05:43:58;;;;;;;97.03;45.95;;;;;;;17.03;100.00;101116.72;5056889;28;20040;-81
2022/08/23 05:46:28;;;;;;;112.43;52.47;;;;;;;17.01;100.00;101116.00;5074984;28;20025;-80
2022/08/23 05:49:02;;;;;;;118.88;51.38;;;;;;;17.30;100.00;101125.97;5061585;28;20033;-81
2022/08/23 05:51:32;;;;;;;127.60;58.75;;;;;;;17.54;100.00;101128.09;5081144;28;20033;-81
2022/08/23 05:54:05;;;;;;;128.18;60.38;;;;;;;18.03;100.00;101144.22;5068915;28;20120;-81
2022/08/23 05:56:40;;;;;;;124.18;60.10;;;;;;;18.14;100.00;101136.50;5069018;28;20123;-81
2022/08/23 05:59:08;;;;;;;127.90;59.50;;;;;;;18.22;100.00;101145.88;5082414;28;20028;-80
2022/08/23 06:01:35;;;;;;;125.10;59.65;;;;;;;18.20;100.00;101154.41;5065939;28;20079;-81
2022/08/23 06:04:06;;;;;;;132.20;58.17;;;;;;;18.45;100.00;101160.94;5072316;28;20028;-81
2022/08/23 06:06:37;;;;;;;122.80;58.50;;;;;;;18.45;100.00;101169.25;5051615;28;20499;-82
2022/08/23 06:09:05;;;;;;;122.68;58.88;;;;;;;18.64;100.00;101158.94;5037354;28;20040;-82
2022/08/23 06:11:31;;;;;;;132.90;59.63;;;;;;;18.81;100.00;101166.28;5084858;28;20028;-81
2022/08/23 06:14:00;;;;;;;131.63;61.30;;;;;;;18.89;100.00;101166.34;5077983;28;20048;-80
2022/08/23 06:16:36;;;;;;;133.57;60.58;;;;;;;18.73;100.00;101163.47;5072026;28;20029;-82
2022/08/23 06:19:06;;;;;;;141.43;59.97;;;;;;;18.79;100.00;101164.69;5077772;28;20434;-82
2022/08/23 06:21:34;;;;;;;143.32;59.28;;;;;;;19.02;100.00;101165.88;5072718;28;20524;-80
2022/08/23 06:24:00;;;;;;;122.85;56.25;;;;;;;19.19;100.00;101161.22;5049807;28;20037;-80
2022/08/23 06:26:32;;;;;;;138.45;57.58;;;;;;;19.23;100.00;101156.19;5068333;28;20061;-80
2022/08/23 06:29:02;;;;;;;124.85;54.80;;;;;;;19.32;100.00;101157.09;5062005;28;20041;-78
2022/08/23 06:31:48;;;;;;;132.65;55.53;;;;;;;19.45;100.00;101171.31;5076836;28;20024;-79
2022/08/23 06:34:26;;;;;;;120.35;55.15;;;;;;;20.10;100.00;101155.69;5060299;28;20037;-80
2022/08/23 06:36:57;;;;;;;114.47;55.22;;;;;;;20.04;100.00;101164.72;5041889;28;20041;-79
2022/08/23 06:39:30;;;;;;;120.43;51.38;;;;;;;20.36;100.00;101164.63;5060664;28;20036;-79
2022/08/23 06:42:07;;;;;;;133.07;51.08;;;;;;;20.55;100.00;101163.38;5069168;28;20075;-78
2022/08/23 06:44:34;;;;;;;117.60;51.78;;;;;;;20.85;100.00;101160.84;5070884;28;20029;-78
2022/08/23 06:47:01;;;;;;;118.20;51.13;;;;;;;20.98;100.00;101157.47;5065643;28;20388;-77
2022/08/23 06:49:28;;;;;;;128.88;51.70;;;;;;;20.96;100.00;101156.78;5074409;28;20092;-78
2022/08/23 06:51:56;;;;;;;112.55;50.80;;;;;;;21.41;100.00;101154.22;5066925;28;20060;-79
2022/08/23 06:54:26;;;;;;;118.70;49.88;;;;;;;21.61;100.00;101158.28;5071500;28;20032;-81
2022/08/23 06:56:53;;;;;;;110.45;49.75;;;;;;;21.82;100.00;101159.50;5076869;28;20055;-79
2022/08/23 06:59:19;;;;;;;117.72;50.15;;;;;;;21.76;100.00;101158.34;5073512;28;20059;-78
2022/08/23 07:01:57;;;;;;;121.75;51.17;;;;;;;21.76;100.00;101165.81;5063994;28;20037;-78
2022/08/23 07:04:32;;;;;;;94.70;48.00;;;;;;;22.09;100.00;101158.03;5067411;28;20117;-79
2022/08/23 07:07:03;;;;;;;102.07;49.45;;;;;;;22.12;100.00;101165.13;5069232;28;20112;-78
2022/08/23 07:09:36;;;;;;;95.05;42.38;;;;;;;22.17;100.00;101165.44;5073270;28;20028;-80
2022/08/23 07:12:02;;;;;;;102.88;44.03;;;;;;;22.46;100.00;101161.81;5057850;28;20039;-78
2022/08/23 07:14:27;;;;;;;91.38;41.05;;;;;;;21.93;100.00;101167.41;5063415;28;20056;-80
2022/08/23 07:17:00;;;;;;;91.65;38.35;;;;;;;22.39;100.00;101174.81;5058920;28;20045;-79
2022/08/23 07:19:29;;;;;;;89.72;39.83;;;;;;;22.86;100.00;101170.75;5074206;28;20531;-78
2022/08/23 07:22:00;;;;;;;91.38;40.90;;;;;;;23.13;100.00;101176.69;5078880;28;20039;-79
2022/08/23 07:24:27;;;;;;;90.85;39.38;;;;;;;23.46;100.00;101170.59;5059937;28;20113;-80
2022/08/23 07:26:58;;;;;;;93.35;40.03;;;;;;;23.26;100.00;101181.56;5063792;28;20033;-79
2022/08/23 07:29:28;;;;;;;92.65;41.17;;;;;;;22.95;100.00;101171.50;5061480;28;20139;-78
2022/08/23 07:31:55;;;;;;;83.90;39.20;;;;;;;22.26;100.00;101177.38;5037448;28;20098;-79
2022/08/23 07:34:22;;;;;;;92.13;41.22;;;;;;;22.23;100.00;101180.53;5069932;28;20033;-79
2022/08/23 07:36:48;;;;;;;89.25;41.35;;;;;;;22.36;100.00;101180.78;5064326;28;20047;-79
2022/08/23 07:39:15;;;;;;;94.07;43.17;;;;;;;22.32;100.00;101185.88;5071412;28;20048;-78
2022/08/23 07:41:43;;;;;;;96.22;44.45;;;;;;;22.44;100.00;101191.00;5047151;28;20029;-78
2022/08/23 07:44:10;;;;;;;116.53;45.67;;;;;;;22.46;100.00;101197.22;5050648;28;20068;-78
2022/08/23 07:46:39;;;;;;;113.90;46.65;;;;;;;22.16;100.00;101191.59;5044256;28;20545;-78
2022/08/23 07:49:10;;;;;;;119.70;50.27;;;;;;;22.38;100.00;101193.50;5069095;28;20024;-77
2022/08/23 07:51:44;;;;;;;129.73;52.08;;;;;;;22.21;100.00;101203.91;5068671;28;20037;-82
2022/08/23 07:54:10;;;;;;;123.53;50.42;;;;;;;22.18;100.00;101206.22;5069928;28;20055;-83
2022/08/23 07:56:36;;;;;;;100.22;47.05;;;;;;;22.15;100.00;101207.47;5071733;28;20032;-83
2022/08/23 07:59:03;;;;;;;95.65;46.08;;;;;;;22.30;100.00;101203.84;5047056;28;20043;-80
2022/08/23 08:01:30;;;;;;;96.20;42.60;;;;;;;23.16;100.00;101203.38;5063773;28;20051;-79
2022/08/23 08:03:57;;;;;;;99.65;41.38;;;;;;;23.60;100.00;101208.81;5061667;28;21423;-80
2022/08/23 08:06:25;;;;;;;86.05;37.67;;;;;;;23.60;100.00;101210.75;5032491;28;20037;-80
2022/08/23 08:08:53;;;;;;;87.93;38.30;;;;;;;23.54;100.00;101214.34;5070368;28;20028;-81
2022/08/23 08:11:24;;;;;;;88.63;38.38;;;;;;;23.74;100.00;101208.94;5059418;28;20061;-80
2022/08/23 08:13:50;;;;;;;68.03;36.30;;;;;;;23.60;100.00;101214.41;5061873;28;20154;-81
2022/08/23 08:16:28;;;;;;;84.35;35.67;;;;;;;23.73;100.00;101215.63;5060433;28;20029;-81
2022/08/23 08:18:59;;;;;;;79.25;34.75;;;;;;;23.85;100.00;101216.84;5061117;28;20033;-81
2022/08/23 08:21:30;;;;;;;78.57;33.63;;;;;;;24.16;100.00;101224.00;5075610;28;20105;-80
2022/08/23 08:23:57;;;;;;;70.30;31.85;;;;;;;23.98;100.00;101213.31;5065613;28;20037;-81
2022/08/23 08:26:23;;;;;;;61.58;29.90;;;;;;;24.02;100.00;101223.91;5065640;28;20103;-80
2022/08/23 08:28:49;;;;;;;83.80;30.13;;;;;;;24.06;100.00;101227.16;5063774;28;20055;-84
2022/08/23 08:31:18;;;;;;;69.80;29.08;;;;;;;24.15;100.00;101222.28;5067366;28;20028;-82
2022/08/23 08:33:46;;;;;;;59.70;28.20;;;;;;;24.38;100.00;101225.69;5039727;28;20060;-82
2022/08/23 08:36:42;;;;;;;55.03;24.20;;;;;;;24.35;100.00;101220.50;5076250;28;20561;-82
2022/08/23 08:39:13;;;;;;;76.30;24.00;;;;;;;24.67;100.00;101223.75;5064411;28;20029;-82
2022/08/23 08:42:13;;;;;;;77.60;22.45;;;;;;;25.07;93.10;101231.50;5050232;28;20025;-84
2022/08/23 08:44:56;;;;;;;58.63;22.90;;;;;;;25.55;91.61;101222.22;5079306;28;20518;-82
2022/08/23 08:48:04;;;;;;;50.17;25.05;;;;;;;25.95;87.28;101223.16;5066050;28;20700;-82
2022/08/23 08:50:36;;;;;;;51.08;22.55;;;;;;;26.53;84.26;101227.25;5064753;28;20032;-82
2022/08/23 08:53:15;;;;;;;71.30;22.10;;;;;;;26.34;87.39;101226.22;5077792;28;20020;-81
2022/08/23 08:55:48;;;;;;;51.60;22.58;;;;;;;26.70;84.93;101220.16;5076955;28;20040;-82
2022/08/23 08:58:22;;;;;;;54.75;21.20;;;;;;;26.97;84.11;101228.50;5071609;28;20043;-81
2022/08/23 09:00:52;;;;;;;44.10;21.27;;;;;;;26.90;83.94;101222.91;5075835;28;20036;-82
2022/08/23 09:03:21;;;;;;;43.92;19.85;;;;;;;26.56;84.91;101227.72;5080443;28;20105;-80
2022/08/23 09:05:56;;;;;;;40.22;18.60;;;;;;;26.95;83.19;101230.66;5081544;28;20036;-82
2022/08/23 09:08:31;;;;;;;43.03;20.17;;;;;;;27.01;82.32;101221.34;5066990;28;20032;-80
2022/08/23 09:11:15;;;;;;;60.83;21.85;;;;;;;26.87;82.38;101230.91;5079850;28;20031;-82
2022/08/23 09:14:03;;;;;;;40.10;20.67;;;;;;;27.25;82.89;101231.00;5069750;28;20051;-81
2022/08/23 09:16:44;;;;;;;55.00;20.45;;;;;;;27.79;80.01;101237.19;5068066;28;20392;-80
2022/08/23 09:19:13;;;;;;;53.40;21.70;;;;;;;27.20;80.64;101232.72;5076345;28;20534;-81
2022/08/23 09:21:53;;;;;;;50.13;22.05;;;;;;;26.80;82.15;101241.31;5066782;28;20051;-81
2022/08/23 09:24:20;;;;;;;50.03;21.05;;;;;;;27.49;79.66;101235.00;5067731;28;20086;-81
2022/08/23 09:26:47;;;;;;;43.92;19.65;;;;;;;27.97;77.22;101239.25;5073343;28;20111;-81
2022/08/23 09:29:19;;;;;;;47.42;16.73;;;;;;;27.64;79.50;101245.09;5070130;28;20025;-83
2022/08/23 09:31:51;;;;;;;40.85;16.52;;;;;;;27.24;79.68;101245.28;5058488;28;20021;-83
2022/08/23 09:34:31;;;;;;;35.47;16.33;;;;;;;27.44;78.58;101240.44;5083856;28;20032;-82
2022/08/23 09:37:18;;;;;;;36.30;16.23;;;;;;;27.31;80.90;101241.34;5074543;28;20028;-83
2022/08/23 09:39:52;;;;;;;47.38;15.20;;;;;;;27.65;79.47;101232.75;5069279;28;20025;-83
2022/08/23 09:42:38;;;;;;;46.17;14.52;;;;;;;28.92;73.83;101231.69;5080812;28;20032;-82
2022/08/23 09:45:22;;;;;;;32.83;13.05;;;;;;;28.72;74.70;101232.78;5064170;28;20033;-83
2022/08/23 09:47:49;;;;;;;43.90;12.00;;;;;;;29.04;70.91;101228.94;5077747;28;20035;-83
2022/08/23 09:50:21;;;;;;;33.92;8.77;;;;;;;28.74;67.93;101236.22;5047448;28;20044;-83
2022/08/23 09:52:53;;;;;;;25.08;10.25;;;;;;;28.70;69.20;101229.34;5092197;28;20029;-81
2022/08/23 09:55:34;;;;;;;22.73;8.05;;;;;;;29.33;65.95;101219.72;5071648;28;20075;-80
2022/08/23 09:58:04;;;;;;;25.52;8.73;;;;;;;29.26;68.65;101224.56;5062967;28;20439;-82
2022/08/23 10:00:33;;;;;;;26.85;8.98;;;;;;;28.61;70.03;101230.72;5076203;28;20052;-81
2022/08/23 10:03:26;;;;;;;15.65;7.00;;;;;;;28.94;66.03;101226.66;5064511;28;20064;-81
2022/08/23 10:05:59;;;;;;;18.90;6.03;;;;;;;29.00;64.80;101234.19;5071439;28;20437;-81
2022/08/23 10:08:32;;;;;;;25.45;8.45;;;;;;;29.05;66.84;101228.72;5063245;28;20060;-82
2022/08/23 10:11:11;;;;;;;32.30;8.35;;;;;;;29.50;64.73;101221.88;5065252;28;20118;-82
2022/08/23 10:13:40;;;;;;;19.67;5.93;;;;;;;29.12;64.57;101221.03;5078977;28;20111;-81
2022/08/23 10:16:13;;;;;;;22.83;5.22;;;;;;;29.39;62.84;101220.72;5080354;28;20028;-83
2022/08/23 10:18:59;;;;;;;18.80;5.55;;;;;;;29.51;63.29;101215.13;5071371;28;20033;-80
2022/08/23 10:21:44;;;;;;;17.92;4.28;;;;;;;29.70;60.25;101213.13;5065699;28;20118;-80
2022/08/23 10:24:18;;;;;;;17.50;4.60;;;;;;;29.63;60.33;101209.50;5095734;28;20459;-81
2022/08/23 10:30:25;;;;;;;21.20;4.47;;;;;;;29.87;58.93;101218.94;5067025;28;20060;-84
2022/08/23 10:33:14;;;;;;;23.80;4.63;;;;;;;29.49;59.71;101209.72;5067597;28;20515;-85
2022/08/23 10:35:58;;;;;;;13.50;4.37;;;;;;;29.98;58.67;101217.28;5046057;28;20029;-83
2022/08/23 10:38:51;;;;;;;11.13;3.10;;;;;;;29.47;57.01;101205.44;5061630;28;20040;-84
2022/08/23 10:41:41;;;;;;;21.80;3.60;;;;;;;29.61;59.69;101209.75;5062545;28;20035;-81
2022/08/23 10:44:33;;;;;;;23.70;5.55;;;;;;;29.66;61.40;101211.84;5066622;28;20479;-84
2022/08/23 10:47:30;;;;;;;14.95;3.47;;;;;;;30.32;57.18;101212.78;5069063;28;20055;-84
2022/08/23 10:50:05;;;;;;;17.15;4.35;;;;;;;29.87;59.26;101202.88;5078924;28;20415;-84
2022/08/23 10:52:39;;;;;;;16.77;4.93;;;;;;;29.56;59.64;101206.78;5066009;28;20041;-82
2022/08/23 10:55:33;;;;;;;15.00;4.35;;;;;;;29.96;57.41;101197.75;5045854;28;20082;-84
2022/08/23 10:58:00;;;;;;;17.13;3.97;;;;;;;30.06;58.02;101197.16;5062206;28;20079;-83
2022/08/23 11:00:29;;;;;;;17.85;4.82;;;;;;;29.90;58.76;101207.19;5062090;28;20091;-82
2022/08/23 11:03:10;;;;;;;15.25;4.15;;;;;;;30.26;57.92;101198.78;5034735;28;20104;-84
2022/08/23 11:05:39;;;;;;;14.45;3.15;;;;;;;30.23;53.64;101200.97;5049135;28;20369;-84
2022/08/23 11:08:10;;;;;;;16.13;2.80;;;;;;;30.18;54.23;101197.16;5082094;28;20182;-85
2022/08/23 11:10:38;;;;;;;;;;;;;;;29.47;57.15;101194.13;5087705;28;20032;-83
2022/08/23 11:13:06;;;;;;;16.23;2.92;;;;;;;29.73;56.14;101203.28;5075575;28;20004;-83
2022/08/23 11:15:55;;;;;;;15.93;2.75;;;;;;;29.92;54.81;101195.66;5089861;28;20037;-84
2022/08/23 11:18:41;;;;;;;12.68;2.90;;;;;;;29.96;54.88;101194.03;5074710;28;20021;-84
2022/08/23 11:21:24;;;;;;;13.35;2.72;;;;;;;30.28;54.93;101193.72;5089358;28;20024;-83
2022/08/23 11:23:57;;;;;;;13.75;3.50;;;;;;;30.34;55.62;101202.09;5093379;28;20032;-84
2022/08/23 11:26:26;;;;;;;17.20;4.10;;;;;;;30.05;56.59;101201.91;5068891;28;20495;-84
2022/08/23 11:29:23;;;;;;;11.68;3.45;;;;;;;30.12;56.09;101204.63;5067899;28;20020;-84
2022/08/23 11:31:50;;;;;;;16.75;3.33;;;;;;;29.83;56.91;101193.16;5085436;28;20063;-83
2022/08/23 11:34:28;;;;;;;11.32;3.42;;;;;;;30.13;57.32;101189.41;5084692;28;20024;-84
2022/08/23 11:37:18;;;;;;;11.50;2.80;;;;;;;30.42;55.17;101198.06;5072175;28;20033;-83